createdAt,value
2023-03-19T00:01:12.801Z,8.20
2023-03-19T00:05:14.709Z,8.30
2023-03-19T00:09:16.766Z,8.30
2023-03-19T00:13:19.549Z,8.40
2023-03-19T00:17:21.565Z,8.40
2023-03-19T00:21:25.865Z,8.50
2023-03-19T00:25:27.755Z,8.40
2023-03-19T00:29:29.751Z,8.50
2023-03-19T00:33:31.388Z,8.40
2023-03-19T00:37:33.522Z,8.40
2023-03-19T00:41:35.191Z,8.30
2023-03-19T00:45:36.912Z,8.10
2023-03-19T00:49:38.603Z,8.10
2023-03-19T00:53:42.248Z,8.00
2023-03-19T00:57:44.022Z,7.90
2023-03-19T01:01:45.736Z,7.80
2023-03-19T01:09:51.058Z,7.60
2023-03-19T01:13:52.657Z,7.60
2023-03-19T01:17:54.316Z,7.50
2023-03-19T01:21:55.925Z,7.40
2023-03-19T01:25:58.310Z,7.30
2023-03-19T01:30:00.170Z,7.20
2023-03-19T01:34:02.141Z,7.20
2023-03-19T01:38:03.845Z,7.10
2023-03-19T01:42:06.601Z,7.10
2023-03-19T01:46:25.699Z,7.20
2023-03-19T01:50:39.867Z,7.10
2023-03-19T01:54:41.837Z,7.10
2023-03-19T01:58:46.235Z,7.10
2023-03-19T02:02:52.239Z,7.00
2023-03-19T02:06:58.215Z,6.90
2023-03-19T02:11:01.290Z,6.80
2023-03-19T02:15:03.131Z,6.80
2023-03-19T02:19:09.547Z,6.70
2023-03-19T02:23:32.376Z,6.70
2023-03-19T02:27:34.323Z,6.60
2023-03-19T02:31:36.370Z,6.60
2023-03-19T02:35:38.876Z,6.70
2023-03-19T02:40:04.414Z,6.70
2023-03-19T02:44:07.739Z,6.80
2023-03-19T02:48:09.406Z,6.90
2023-03-19T02:52:11.453Z,7.00
2023-03-19T02:56:13.372Z,7.10
2023-03-19T03:00:17.497Z,7.20
2023-03-19T03:04:19.170Z,7.30
2023-03-19T03:08:20.892Z,7.30
2023-03-19T03:12:22.618Z,7.50
2023-03-19T03:16:25.752Z,7.70
2023-03-19T03:20:27.562Z,7.80
2023-03-19T03:24:29.354Z,7.90
2023-03-19T03:28:31.032Z,8.00
2023-03-19T03:32:32.706Z,8.10
2023-03-19T03:36:34.359Z,8.30
2023-03-19T03:40:37.379Z,8.30
2023-03-19T03:44:39.155Z,8.40
2023-03-19T03:48:41.046Z,8.40
2023-03-19T03:52:42.935Z,8.50
2023-03-19T03:56:44.681Z,8.50
2023-03-19T04:00:47.739Z,8.60
2023-03-19T04:04:49.372Z,8.70
2023-03-19T04:08:51.712Z,8.80
2023-03-19T04:12:53.369Z,8.80
2023-03-19T04:16:55.181Z,8.90
2023-03-19T04:20:57.634Z,9.00
2023-03-19T04:24:59.467Z,9.00
2023-03-19T04:29:01.130Z,9.10
2023-03-19T04:33:04.676Z,9.40
2023-03-19T04:37:06.352Z,9.40
2023-03-19T04:41:08.894Z,9.40
2023-03-19T04:45:11.108Z,9.40
2023-03-19T04:49:13.082Z,9.60
2023-03-19T04:53:14.870Z,9.60
2023-03-19T04:57:16.617Z,9.70
2023-03-19T05:01:18.394Z,9.50
2023-03-19T05:05:20.045Z,9.60
2023-03-19T05:09:21.685Z,9.60
2023-03-19T05:13:23.313Z,9.80
2023-03-19T05:17:25.194Z,9.70
2023-03-19T05:21:27.508Z,9.70
2023-03-19T05:25:30.086Z,9.70
2023-03-19T05:29:31.768Z,9.70
2023-03-19T05:33:33.615Z,9.70
2023-03-19T05:37:35.337Z,9.90
2023-03-19T05:41:37.133Z,9.90
2023-03-19T05:45:38.898Z,10.00
2023-03-19T05:49:40.605Z,10.00
2023-03-19T05:53:42.242Z,9.90
2023-03-19T05:57:44.204Z,9.90
2023-03-19T06:01:45.899Z,10.10
2023-03-19T06:05:50.717Z,10.00
2023-03-19T06:09:52.360Z,10.00
2023-03-19T06:13:54.013Z,10.10
2023-03-19T06:17:55.826Z,10.10
2023-03-19T06:21:57.524Z,10.20
2023-03-19T06:25:59.188Z,10.40
2023-03-19T06:30:00.845Z,10.40
2023-03-19T06:34:02.490Z,10.40
2023-03-19T06:38:04.158Z,10.40
2023-03-19T06:42:06.045Z,10.60
2023-03-19T06:46:11.278Z,10.60
2023-03-19T06:50:16.238Z,10.70
2023-03-19T06:54:17.945Z,10.60
2023-03-19T06:58:19.870Z,10.60
2023-03-19T07:02:22.102Z,10.60
2023-03-19T07:06:24.012Z,10.60
2023-03-19T07:10:25.859Z,10.60
2023-03-19T07:14:27.634Z,10.50
2023-03-19T07:18:29.730Z,10.50
2023-03-19T07:22:31.385Z,10.60
2023-03-19T07:26:33.147Z,10.70
2023-03-19T07:30:35.860Z,10.80
2023-03-19T07:34:37.696Z,11.00
2023-03-19T07:38:39.384Z,11.10
2023-03-19T07:42:41.887Z,11.20
2023-03-19T07:46:44.449Z,11.20
2023-03-19T07:50:46.120Z,11.20
2023-03-19T07:54:47.835Z,11.20
2023-03-19T07:58:49.485Z,11.20
2023-03-19T08:02:51.254Z,11.20
2023-03-19T08:06:53.791Z,11.20
2023-03-19T08:10:56.133Z,11.20
2023-03-19T08:14:57.968Z,11.30
2023-03-19T08:18:59.636Z,11.50
2023-03-19T08:23:01.380Z,11.50
2023-03-19T08:27:03.712Z,11.50
2023-03-19T08:31:13.657Z,11.70
2023-03-19T08:35:15.661Z,11.90
2023-03-19T08:39:17.347Z,11.90
2023-03-19T08:43:19.012Z,11.90
2023-03-19T08:47:24.176Z,12.00
2023-03-19T08:51:26.287Z,12.10
2023-03-19T08:55:27.959Z,12.20
2023-03-19T08:59:30.951Z,12.30
2023-03-19T09:03:33.669Z,12.50
2023-03-19T09:07:35.371Z,12.70
2023-03-19T09:11:37.099Z,12.90
2023-03-19T09:15:38.784Z,13.00
2023-03-19T09:19:41.532Z,13.00
2023-03-19T09:23:43.315Z,13.00
2023-03-19T09:27:44.966Z,12.90
2023-03-19T09:31:46.863Z,13.00
2023-03-19T09:35:53.546Z,13.10
2023-03-19T09:39:55.200Z,13.20
2023-03-19T09:43:59.901Z,13.20
2023-03-19T09:48:07.425Z,13.20
2023-03-19T09:52:43.402Z,13.20
2023-03-19T09:56:45.163Z,13.40
2023-03-19T10:00:49.804Z,13.50
2023-03-19T10:05:00.886Z,13.50
2023-03-19T10:09:28.359Z,13.40
2023-03-19T10:14:00.711Z,13.50
2023-03-19T10:18:10.955Z,13.80
2023-03-19T10:22:19.192Z,14.20
2023-03-19T10:26:26.377Z,14.30
2023-03-19T10:30:28.891Z,14.20
2023-03-19T10:34:41.502Z,14.20
2023-03-19T10:38:44.119Z,14.20
2023-03-19T10:43:04.116Z,14.10
2023-03-19T10:47:14.499Z,13.90
2023-03-19T10:51:38.447Z,13.60
2023-03-19T10:56:04.896Z,13.70
2023-03-19T11:00:15.571Z,13.50
2023-03-19T11:04:18.488Z,13.30
2023-03-19T11:08:34.877Z,13.00
2023-03-19T11:12:40.008Z,12.70
2023-03-19T11:17:15.857Z,12.40
2023-03-19T11:21:30.876Z,12.20
2023-03-19T11:25:44.194Z,12.20
2023-03-19T11:29:46.386Z,12.40
2023-03-19T11:34:20.319Z,12.40
2023-03-19T11:38:37.858Z,12.50
2023-03-19T11:42:52.732Z,12.50
2023-03-19T11:47:17.806Z,12.50
2023-03-19T11:51:42.746Z,12.50
2023-03-19T11:56:08.026Z,12.60
2023-03-19T12:00:22.601Z,12.70
2023-03-19T12:04:47.318Z,12.70
2023-03-19T12:08:59.062Z,12.70
2023-03-19T12:13:08.585Z,12.80
2023-03-19T12:17:43.802Z,12.80
2023-03-19T12:22:25.542Z,12.80
2023-03-19T12:26:49.341Z,12.70
2023-03-19T12:31:03.204Z,12.70
2023-03-19T12:35:13.820Z,12.60
2023-03-19T12:39:31.811Z,12.60
2023-03-19T12:44:01.749Z,12.90
2023-03-19T12:48:10.194Z,13.60
2023-03-19T12:52:28.744Z,14.10
2023-03-19T12:56:40.119Z,14.30
2023-03-19T13:01:03.515Z,14.40
2023-03-19T13:05:53.091Z,14.40
2023-03-19T13:10:11.354Z,15.30
2023-03-19T13:14:25.508Z,17.40
2023-03-19T13:18:52.759Z,18.50
2023-03-19T13:23:02.262Z,17.90
2023-03-19T13:27:06.523Z,17.00
2023-03-19T13:31:24.854Z,16.50
2023-03-19T13:35:41.556Z,16.30
2023-03-19T13:39:44.962Z,15.50
2023-03-19T13:43:53.861Z,15.30
2023-03-19T13:47:59.069Z,15.10
2023-03-19T13:52:09.905Z,15.20
2023-03-19T13:56:29.147Z,15.00
2023-03-19T14:00:46.939Z,15.30
2023-03-19T14:05:06.940Z,15.50
2023-03-19T14:09:35.898Z,15.50
2023-03-19T14:13:41.405Z,15.20
2023-03-19T14:18:07.769Z,15.50
2023-03-19T14:22:31.183Z,15.40
2023-03-19T14:26:32.908Z,15.40
2023-03-19T14:30:42.290Z,15.30
2023-03-19T14:34:45.897Z,15.00
2023-03-19T14:39:03.192Z,15.00
2023-03-19T14:43:24.950Z,14.90
2023-03-19T14:47:41.461Z,14.90
2023-03-19T14:52:02.101Z,14.70
2023-03-19T14:56:14.234Z,14.60
2023-03-19T15:00:18.256Z,14.50
2023-03-19T15:04:25.576Z,14.30
2023-03-19T15:08:31.142Z,14.30
2023-03-19T15:13:06.521Z,14.30
2023-03-19T15:17:21.496Z,14.40
2023-03-19T15:21:23.190Z,14.20
2023-03-19T15:25:24.908Z,14.20
2023-03-19T15:29:37.773Z,14.10
2023-03-19T15:33:44.089Z,14.00
2023-03-19T15:37:53.033Z,14.00
2023-03-19T15:41:56.003Z,14.10
2023-03-19T15:45:58.083Z,14.20
2023-03-19T15:50:03.760Z,14.20
2023-03-19T15:54:06.163Z,14.10
2023-03-19T15:58:23.559Z,14.00
2023-03-19T16:02:34.083Z,14.00
2023-03-19T16:06:40.274Z,14.00
2023-03-19T16:10:43.623Z,13.90
2023-03-19T16:14:45.988Z,13.80
2023-03-19T16:18:56.377Z,13.70
2023-03-19T16:23:00.929Z,13.60
2023-03-19T16:27:06.368Z,13.50
2023-03-19T16:31:21.370Z,13.50
2023-03-19T16:35:23.907Z,13.50
2023-03-19T16:39:30.007Z,13.30
2023-03-19T16:43:36.689Z,13.40
2023-03-19T16:47:38.338Z,13.50
2023-03-19T16:51:40.433Z,13.40
2023-03-19T16:55:42.376Z,13.20
2023-03-19T16:59:46.291Z,13.00
2023-03-19T17:03:49.457Z,13.00
2023-03-19T17:07:51.415Z,13.00
2023-03-19T17:11:55.094Z,12.90
2023-03-19T17:16:03.389Z,13.00
2023-03-19T17:20:06.044Z,12.80
2023-03-19T17:24:31.490Z,12.70
2023-03-19T17:28:33.417Z,12.60
2023-03-19T17:32:35.250Z,12.60
2023-03-19T17:36:37.104Z,12.50
2023-03-19T17:40:38.736Z,12.40
2023-03-19T17:44:40.426Z,12.40
2023-03-19T17:48:42.173Z,12.40
2023-03-19T17:52:46.579Z,12.40
2023-03-19T17:56:48.595Z,12.40
2023-03-19T18:00:51.222Z,12.40
2023-03-19T18:04:53.419Z,12.50
2023-03-19T18:08:55.242Z,12.50
2023-03-19T18:12:59.868Z,12.40
2023-03-19T18:17:01.844Z,12.50
2023-03-19T18:21:03.671Z,12.40
2023-03-19T18:25:05.843Z,12.30
2023-03-19T18:29:07.593Z,12.20
2023-03-19T18:33:16.371Z,12.20
2023-03-19T18:37:18.490Z,12.10
2023-03-19T18:41:21.394Z,12.10
2023-03-19T18:45:23.328Z,12.00
2023-03-19T18:49:26.599Z,12.00
2023-03-19T18:53:29.970Z,11.90
2023-03-19T18:57:32.023Z,11.80
2023-03-19T19:01:33.716Z,11.90
2023-03-19T19:05:36.166Z,11.70
2023-03-19T19:09:37.901Z,11.60
2023-03-19T19:13:55.030Z,11.60
2023-03-19T19:17:57.855Z,11.50
2023-03-19T19:21:59.502Z,11.60
2023-03-19T19:26:01.358Z,11.70
2023-03-19T19:30:03.353Z,11.50
2023-03-19T19:34:05.014Z,11.40
2023-03-19T19:38:06.784Z,11.40
2023-03-19T19:42:19.798Z,11.30
2023-03-19T19:46:23.519Z,11.30
2023-03-19T19:50:27.511Z,11.30
2023-03-19T19:54:29.197Z,11.30
2023-03-19T19:58:32.764Z,11.20
2023-03-19T20:02:34.426Z,11.20
2023-03-19T20:06:36.470Z,11.30
2023-03-19T20:10:38.762Z,11.40
2023-03-19T20:14:40.925Z,11.30
2023-03-19T20:18:43.547Z,11.20
2023-03-19T20:22:46.254Z,11.30
2023-03-19T20:26:47.984Z,11.20
2023-03-19T20:30:51.359Z,11.20
2023-03-19T20:34:53.228Z,11.10
2023-03-19T20:38:54.909Z,11.00
2023-03-19T20:42:56.889Z,11.00
2023-03-19T20:46:58.913Z,10.90
2023-03-19T20:51:02.341Z,10.90
2023-03-19T20:55:04.327Z,10.80
2023-03-19T20:59:06.012Z,10.80
2023-03-19T21:03:15.711Z,10.80
2023-03-19T21:07:33.209Z,10.60
2023-03-19T21:11:40.718Z,10.60
2023-03-19T21:15:43.744Z,10.70
2023-03-19T21:19:45.841Z,10.70
2023-03-19T21:24:11.674Z,10.60
2023-03-19T21:28:29.091Z,10.40
2023-03-19T21:32:31.585Z,10.40
2023-03-19T21:36:33.269Z,10.40
2023-03-19T21:40:34.989Z,10.40
2023-03-19T21:44:37.809Z,10.30
2023-03-19T21:48:39.889Z,10.20
2023-03-19T21:52:56.566Z,10.10
2023-03-19T21:56:59.350Z,10.00
2023-03-19T22:01:02.382Z,9.90
2023-03-19T22:05:17.205Z,9.90
2023-03-19T22:09:18.811Z,9.90
2023-03-19T22:13:27.843Z,9.90
2023-03-19T22:17:30.839Z,9.90
2023-03-19T22:21:34.110Z,9.90
2023-03-19T22:25:39.973Z,9.80
2023-03-19T22:29:45.824Z,9.80
2023-03-19T22:33:48.576Z,9.70
2023-03-19T22:37:50.467Z,9.70
2023-03-19T22:41:52.183Z,9.70
2023-03-19T22:45:57.217Z,9.60
2023-03-19T22:49:59.280Z,9.60
2023-03-19T22:54:01.508Z,9.50
2023-03-19T22:58:03.146Z,9.50
2023-03-19T23:02:04.881Z,9.40
2023-03-19T23:06:29.080Z,9.40
2023-03-19T23:10:33.026Z,9.40
2023-03-19T23:14:36.526Z,9.30
2023-03-19T23:18:38.343Z,9.30
2023-03-19T23:22:40.277Z,9.20
2023-03-19T23:26:45.206Z,9.20
2023-03-19T23:30:48.300Z,9.10
2023-03-19T23:34:59.527Z,9.00
2023-03-19T23:39:03.948Z,9.00
2023-03-19T23:43:07.375Z,8.90
2023-03-19T23:47:09.250Z,8.90
2023-03-19T23:51:14.156Z,8.90
2023-03-19T23:55:16.124Z,8.90
2023-03-19T23:59:17.788Z,8.80
